Hunt Valley, Maryland
Current Conditions -  °F | °C
As of 8:55 AM on Monday 20 Oct 2014 (Local Time) from KMTN Reporting Station
Broken Clouds Broken Clouds  
Wind Chill: 46°   Ceiling: 20000
Heat Index: 46°   Visibility: 10mi
Dew Point: 45°   Wind: 0mph
Humidity: 93%   Direction: NA
Pressure: 30.16"   Gusts: NA
Location:  39.49°N, 76.66°W
Report Text: KMTN 201255Z 00000KT 10SM BKN200 08/07 A3016
Loading
Personal Weather Stations






























Interactive Weather Map
Tropical Storm Tracking
New forecast layout! Learn more

10-Day Weather Forecast

Advertisements
Track Severe Weather on mobile